Pagrindinis puslapis
METAR-TAF:

METAR-TAF

Oro uostai :

Esmeraldasas, Ekvadoras

platuma: 00-58-43N, ilguma: 079-37-36W, Aukštis: 10 m

Dabartinis oras

Ataskaita buvo paskelbta 9 valandos ir 35 minutes, ne 23:00 UTC
Vėjas 12 kt iš Vakarų, svyruoja nuo Vakarų/Pietvakarių ir Vakarų/Šiaurės Vakarų
Temperatūra 26°C
Drėgmė 84%
Slėgis 1008 hPa
Matomumas 10 km arba daugiau
Išsisklaidę debesys ne aukštis 2600 ft
Su prošvaistėmis ne aukštis 10000 ft

METAR: SETN 202300Z 28012KT 240V300 9999 SCT026 BKN100 26/23 Q1008 A2978

Laikas: 03:35 (08:35 UTC)


TAF: trūkstamas

Orai ataskaitas ir orų prognozės (METAR, TAF).

turimą stotys yra geltonos ir raudonos taškus žemėlapyje.

Perkelti pele per norėdami pamatyti stoties vardą.

Tada spustelėkite, norėdami matyti oro stebėjimo ir prognozės.

Norėdami pakeisti žemėlapį: spustelėkite ant žalios mygtukų su juodo kryžiaus žemyn,; žalią mygtuką su brūkšneliu, jei norite nutolinti; arba žalių rodyklių gretimoms žemėlapius.


METAR-TAF: